sensor_id;sensor_type;location;lat;lon;timestamp;pressure;altitude;pressure_sealevel;temperature;humidity
69624;BME280;56843;52.020;5.670;2022-11-20T00:00:54;101182.31;;;-6.57;84.19
69624;BME280;56843;52.020;5.670;2022-11-20T00:02:24;101173.50;;;-6.56;84.18
69624;BME280;56843;52.020;5.670;2022-11-20T00:03:56;101172.31;;;-6.53;84.64
69624;BME280;56843;52.020;5.670;2022-11-20T00:05:27;101172.69;;;-6.50;84.76
69624;BME280;56843;52.020;5.670;2022-11-20T00:06:58;101173.50;;;-6.49;84.74
69624;BME280;56843;52.020;5.670;2022-11-20T00:08:28;101175.31;;;-6.50;84.51
69624;BME280;56843;52.020;5.670;2022-11-20T00:09:59;101161.72;;;-6.52;84.39
69624;BME280;56843;52.020;5.670;2022-11-20T00:11:31;101163.94;;;-6.55;84.51
69624;BME280;56843;52.020;5.670;2022-11-20T00:13:01;101173.50;;;-6.56;84.28
69624;BME280;56843;52.020;5.670;2022-11-20T00:14:32;101170.13;;;-6.56;84.32
69624;BME280;56843;52.020;5.670;2022-11-20T00:16:04;101167.72;;;-6.58;84.42
69624;BME280;56843;52.020;5.670;2022-11-20T00:17:35;101171.34;;;-6.59;84.60
69624;BME280;56843;52.020;5.670;2022-11-20T00:19:06;101166.16;;;-6.59;84.71
69624;BME280;56843;52.020;5.670;2022-11-20T00:20:36;101167.94;;;-6.59;84.57
69624;BME280;56843;52.020;5.670;2022-11-20T00:22:07;101160.53;;;-6.62;84.77
69624;BME280;56843;52.020;5.670;2022-11-20T00:23:37;101167.34;;;-6.61;84.27
69624;BME280;56843;52.020;5.670;2022-11-20T00:25:08;101162.16;;;-6.61;84.79
69624;BME280;56843;52.020;5.670;2022-11-20T00:26:38;101158.53;;;-6.60;84.85
69624;BME280;56843;52.020;5.670;2022-11-20T00:28:09;101170.91;;;-6.62;84.67
69624;BME280;56843;52.020;5.670;2022-11-20T00:29:39;101167.13;;;-6.66;84.70
69624;BME280;56843;52.020;5.670;2022-11-20T00:31:14;101162.16;;;-6.68;84.80
69624;BME280;56843;52.020;5.670;2022-11-20T00:32:45;101164.34;;;-6.72;84.86
69624;BME280;56843;52.020;5.670;2022-11-20T00:34:15;101160.16;;;-6.72;84.62
69624;BME280;56843;52.020;5.670;2022-11-20T00:35:46;101156.53;;;-6.78;84.86
69624;BME280;56843;52.020;5.670;2022-11-20T00:37:16;101155.94;;;-6.80;84.90
69624;BME280;56843;52.020;5.670;2022-11-20T00:38:51;101154.53;;;-6.83;84.49
69624;BME280;56843;52.020;5.670;2022-11-20T00:40:25;101150.53;;;-6.85;84.61
69624;BME280;56843;52.020;5.670;2022-11-20T00:41:55;101159.56;;;-6.88;84.99
69624;BME280;56843;52.020;5.670;2022-11-20T00:43:26;101163.13;;;-6.89;84.92
69624;BME280;56843;52.020;5.670;2022-11-20T00:44:57;101160.75;;;-6.90;84.79
69624;BME280;56843;52.020;5.670;2022-11-20T00:46:28;101158.34;;;-6.92;84.66
69624;BME280;56843;52.020;5.670;2022-11-20T00:47:59;101162.75;;;-6.92;84.63
69624;BME280;56843;52.020;5.670;2022-11-20T00:49:29;101162.13;;;-6.94;84.90
69624;BME280;56843;52.020;5.670;2022-11-20T00:51:00;101173.72;;;-6.97;85.09
69624;BME280;56843;52.020;5.670;2022-11-20T00:52:30;101169.72;;;-6.99;84.75
69624;BME280;56843;52.020;5.670;2022-11-20T00:54:01;101162.13;;;-7.01;84.99
69624;BME280;56843;52.020;5.670;2022-11-20T00:55:32;101158.94;;;-7.03;84.92
69624;BME280;56843;52.020;5.670;2022-11-20T00:57:02;101148.53;;;-7.03;85.14
69624;BME280;56843;52.020;5.670;2022-11-20T00:58:35;101155.56;;;-7.03;84.97
69624;BME280;56843;52.020;5.670;2022-11-20T01:00:06;101157.34;;;-7.04;84.98
69624;BME280;56843;52.020;5.670;2022-11-20T01:01:37;101157.34;;;-7.04;85.06
69624;BME280;56843;52.020;5.670;2022-11-20T01:03:07;101149.72;;;-7.05;84.86
69624;BME280;56843;52.020;5.670;2022-11-20T01:04:38;101159.34;;;-7.06;85.15
69624;BME280;56843;52.020;5.670;2022-11-20T01:06:30;101157.13;;;-7.09;85.00
69624;BME280;56843;52.020;5.670;2022-11-20T01:08:01;101152.75;;;-7.08;85.20
69624;BME280;56843;52.020;5.670;2022-11-20T01:09:31;101155.72;;;-7.05;85.50
69624;BME280;56843;52.020;5.670;2022-11-20T01:11:08;101152.75;;;-7.02;85.40
69624;BME280;56843;52.020;5.670;2022-11-20T01:12:38;101146.53;;;-7.01;85.45
69624;BME280;56843;52.020;5.670;2022-11-20T01:14:12;101142.56;;;-7.03;85.03
69624;BME280;56843;52.020;5.670;2022-11-20T01:15:42;101146.16;;;-7.04;85.16
69624;BME280;56843;52.020;5.670;2022-11-20T01:17:13;101141.16;;;-7.06;84.92
69624;BME280;56843;52.020;5.670;2022-11-20T01:18:46;101144.75;;;-7.07;85.09
69624;BME280;56843;52.020;5.670;2022-11-20T01:20:17;101133.78;;;-7.09;85.13
69624;BME280;56843;52.020;5.670;2022-11-20T01:21:49;101137.19;;;-7.08;84.98
69624;BME280;56843;52.020;5.670;2022-11-20T01:23:20;101136.38;;;-7.09;85.54
69624;BME280;56843;52.020;5.670;2022-11-20T01:24:50;101132.97;;;-7.09;85.08
69624;BME280;56843;52.020;5.670;2022-11-20T01:26:24;101126.59;;;-7.07;85.29
69624;BME280;56843;52.020;5.670;2022-11-20T01:27:55;101133.56;;;-7.07;85.17
69624;BME280;56843;52.020;5.670;2022-11-20T01:29:25;101128.59;;;-7.09;85.40
69624;BME280;56843;52.020;5.670;2022-11-20T01:30:56;101127.78;;;-7.09;85.31
69624;BME280;56843;52.020;5.670;2022-11-20T01:32:27;101134.78;;;-7.10;85.19
69624;BME280;56843;52.020;5.670;2022-11-20T01:34:03;101133.19;;;-7.11;85.13
69624;BME280;56843;52.020;5.670;2022-11-20T01:35:33;101132.38;;;-7.11;85.11
69624;BME280;56843;52.020;5.670;2022-11-20T01:37:04;101125.38;;;-7.11;85.18
69624;BME280;56843;52.020;5.670;2022-11-20T01:38:35;101121.00;;;-7.10;85.41
69624;BME280;56843;52.020;5.670;2022-11-20T01:40:06;101128.78;;;-7.10;85.20
69624;BME280;56843;52.020;5.670;2022-11-20T01:41:36;101125.00;;;-7.14;85.34
69624;BME280;56843;52.020;5.670;2022-11-20T01:43:26;101125.78;;;-7.14;85.15
69624;BME280;56843;52.020;5.670;2022-11-20T01:44:59;101130.97;;;-7.14;85.50
69624;BME280;56843;52.020;5.670;2022-11-20T01:46:32;101122.59;;;-7.16;85.50
69624;BME280;56843;52.020;5.670;2022-11-20T01:48:05;101135.97;;;-7.19;85.15
69624;BME280;56843;52.020;5.670;2022-11-20T01:49:41;101131.38;;;-7.23;85.40
69624;BME280;56843;52.020;5.670;2022-11-20T01:51:35;101130.78;;;-7.25;85.43
69624;BME280;56843;52.020;5.670;2022-11-20T01:53:13;101142.53;;;-7.29;85.27
69624;BME280;56843;52.020;5.670;2022-11-20T01:55:22;101136.72;;;-7.31;85.37
69624;BME280;56843;52.020;5.670;2022-11-20T01:56:55;101130.94;;;-7.33;85.39
69624;BME280;56843;52.020;5.670;2022-11-20T01:58:31;101130.38;;;-7.35;85.04
69624;BME280;56843;52.020;5.670;2022-11-20T02:00:07;101127.19;;;-7.37;85.54
69624;BME280;56843;52.020;5.670;2022-11-20T02:03:57;101139.94;;;-7.42;85.37
69624;BME280;56843;52.020;5.670;2022-11-20T02:05:37;101137.75;;;-7.45;85.52
69624;BME280;56843;52.020;5.670;2022-11-20T02:07:09;101143.13;;;-7.47;85.62
69624;BME280;56843;52.020;5.670;2022-11-20T02:08:40;101138.34;;;-7.50;85.39
69624;BME280;56843;52.020;5.670;2022-11-20T02:10:11;101136.94;;;-7.53;85.38
69624;BME280;56843;52.020;5.670;2022-11-20T02:11:42;101140.72;;;-7.55;85.44
69624;BME280;56843;52.020;5.670;2022-11-20T02:13:12;101125.34;;;-7.57;85.58
69624;BME280;56843;52.020;5.670;2022-11-20T02:15:01;101125.16;;;-7.55;85.69
69624;BME280;56843;52.020;5.670;2022-11-20T02:16:43;101125.75;;;-7.53;85.88
69624;BME280;56843;52.020;5.670;2022-11-20T02:18:17;101133.94;;;-7.50;85.86
69624;BME280;56843;52.020;5.670;2022-11-20T02:19:49;101135.75;;;-7.50;85.64
69624;BME280;56843;52.020;5.670;2022-11-20T02:21:35;101122.56;;;-7.55;85.61
69624;BME280;56843;52.020;5.670;2022-11-20T02:23:09;101126.13;;;-7.56;85.52
69624;BME280;56843;52.020;5.670;2022-11-20T02:24:41;101135.91;;;-7.58;85.52
69624;BME280;56843;52.020;5.670;2022-11-20T02:26:15;101136.09;;;-7.60;85.61
69624;BME280;56843;52.020;5.670;2022-11-20T02:27:46;101132.09;;;-7.62;85.64
69624;BME280;56843;52.020;5.670;2022-11-20T02:29:23;101129.72;;;-7.64;85.91
69624;BME280;56843;52.020;5.670;2022-11-20T02:30:54;101124.75;;;-7.65;85.74
69624;BME280;56843;52.020;5.670;2022-11-20T02:32:30;101125.50;;;-7.65;85.60
69624;BME280;56843;52.020;5.670;2022-11-20T02:34:01;101121.50;;;-7.67;85.83
69624;BME280;56843;52.020;5.670;2022-11-20T02:37:02;101129.28;;;-7.67;85.68
69624;BME280;56843;52.020;5.670;2022-11-20T02:38:32;101121.50;;;-7.67;85.73
69624;BME280;56843;52.020;5.670;2022-11-20T02:40:03;101119.94;;;-7.68;85.83
69624;BME280;56843;52.020;5.670;2022-11-20T02:41:35;101117.53;;;-7.70;85.60
69624;BME280;56843;52.020;5.670;2022-11-20T02:43:07;101110.75;;;-7.71;85.65
69624;BME280;56843;52.020;5.670;2022-11-20T02:44:37;101111.56;;;-7.70;86.02
69624;BME280;56843;52.020;5.670;2022-11-20T02:46:08;101103.78;;;-7.70;86.00
69624;BME280;56843;52.020;5.670;2022-11-20T02:47:38;101117.13;;;-7.67;85.87
69624;BME280;56843;52.020;5.670;2022-11-20T02:49:09;101109.97;;;-7.65;86.13
69624;BME280;56843;52.020;5.670;2022-11-20T02:50:40;101113.56;;;-7.59;86.41
69624;BME280;56843;52.020;5.670;2022-11-20T02:52:10;101110.78;;;-7.58;86.26
69624;BME280;56843;52.020;5.670;2022-11-20T02:53:41;101101.41;;;-7.59;86.37
69624;BME280;56843;52.020;5.670;2022-11-20T02:55:12;101107.19;;;-7.57;86.21
69624;BME280;56843;52.020;5.670;2022-11-20T02:56:42;101103.81;;;-7.57;85.97
69624;BME280;56843;52.020;5.670;2022-11-20T02:58:13;101102.19;;;-7.58;86.12
69624;BME280;56843;52.020;5.670;2022-11-20T02:59:44;101096.41;;;-7.60;85.76
69624;BME280;56843;52.020;5.670;2022-11-20T03:01:14;101091.22;;;-7.60;86.21
69624;BME280;56843;52.020;5.670;2022-11-20T03:02:45;101092.84;;;-7.59;86.07
69624;BME280;56843;52.020;5.670;2022-11-20T03:04:16;101089.63;;;-7.61;86.31
69624;BME280;56843;52.020;5.670;2022-11-20T03:05:46;101097.22;;;-7.60;85.85
69624;BME280;56843;52.020;5.670;2022-11-20T03:07:17;101091.63;;;-7.63;86.15
69624;BME280;56843;52.020;5.670;2022-11-20T03:08:47;101085.03;;;-7.66;85.89
69624;BME280;56843;52.020;5.670;2022-11-20T03:10:18;101091.41;;;-7.68;86.07
69624;BME280;56843;52.020;5.670;2022-11-20T03:11:51;101090.59;;;-7.69;86.51
69624;BME280;56843;52.020;5.670;2022-11-20T03:13:22;101087.63;;;-7.66;86.26
69624;BME280;56843;52.020;5.670;2022-11-20T03:14:52;101083.84;;;-7.63;86.12
69624;BME280;56843;52.020;5.670;2022-11-20T03:16:26;101084.84;;;-7.64;86.25
69624;BME280;56843;52.020;5.670;2022-11-20T03:17:57;101084.63;;;-7.63;86.65
69624;BME280;56843;52.020;5.670;2022-11-20T03:19:27;101077.28;;;-7.59;86.99
69624;BME280;56843;52.020;5.670;2022-11-20T03:21:00;101072.88;;;-7.59;87.10
69624;BME280;56843;52.020;5.670;2022-11-20T03:22:31;101084.03;;;-7.58;86.82
69624;BME280;56843;52.020;5.670;2022-11-20T03:24:02;101080.06;;;-7.61;86.79
69624;BME280;56843;52.020;5.670;2022-11-20T03:25:33;101078.66;;;-7.63;86.68
69624;BME280;56843;52.020;5.670;2022-11-20T03:27:04;101087.03;;;-7.68;86.65
69624;BME280;56843;52.020;5.670;2022-11-20T03:28:35;101079.03;;;-7.73;86.68
69624;BME280;56843;52.020;5.670;2022-11-20T03:30:06;101085.63;;;-7.77;86.89
69624;BME280;56843;52.020;5.670;2022-11-20T03:31:38;101079.22;;;-7.81;86.68
69624;BME280;56843;52.020;5.670;2022-11-20T03:33:12;101083.59;;;-7.81;86.86
69624;BME280;56843;52.020;5.670;2022-11-20T03:34:42;101079.59;;;-7.84;86.78
69624;BME280;56843;52.020;5.670;2022-11-20T03:36:15;101077.22;;;-7.85;86.73
69624;BME280;56843;52.020;5.670;2022-11-20T03:37:46;101070.63;;;-7.88;86.67
69624;BME280;56843;52.020;5.670;2022-11-20T03:39:16;101075.97;;;-7.89;86.89
69624;BME280;56843;52.020;5.670;2022-11-20T03:40:47;101087.56;;;-7.92;86.76
69624;BME280;56843;52.020;5.670;2022-11-20T03:42:18;101082.75;;;-7.95;87.05
69624;BME280;56843;52.020;5.670;2022-11-20T03:44:09;101084.16;;;-7.99;86.83
69624;BME280;56843;52.020;5.670;2022-11-20T03:45:40;101069.56;;;-8.00;86.95
69624;BME280;56843;52.020;5.670;2022-11-20T03:47:11;101075.94;;;-8.02;86.63
69624;BME280;56843;52.020;5.670;2022-11-20T03:48:42;101078.75;;;-8.04;86.76
69624;BME280;56843;52.020;5.670;2022-11-20T03:50:13;101075.53;;;-8.06;87.17
69624;BME280;56843;52.020;5.670;2022-11-20T03:51:44;101077.53;;;-8.08;86.77
69624;BME280;56843;52.020;5.670;2022-11-20T03:53:15;101080.13;;;-8.08;87.04
69624;BME280;56843;52.020;5.670;2022-11-20T03:54:46;101075.31;;;-8.11;86.88
69624;BME280;56843;52.020;5.670;2022-11-20T03:56:19;101072.72;;;-8.11;87.10
69624;BME280;56843;52.020;5.670;2022-11-20T03:57:49;101071.91;;;-8.11;86.92
69624;BME280;56843;52.020;5.670;2022-11-20T03:59:20;101067.53;;;-8.11;86.73
69624;BME280;56843;52.020;5.670;2022-11-20T04:00:50;101064.94;;;-8.11;86.86
69624;BME280;56843;52.020;5.670;2022-11-20T04:02:21;101059.78;;;-8.11;86.95
69624;BME280;56843;52.020;5.670;2022-11-20T04:03:53;101055.41;;;-8.10;86.99
69624;BME280;56843;52.020;5.670;2022-11-20T04:05:24;101061.78;;;-8.06;87.01
69624;BME280;56843;52.020;5.670;2022-11-20T04:06:55;101056.03;;;-8.02;87.13
69624;BME280;56843;52.020;5.670;2022-11-20T04:08:25;101052.25;;;-7.99;87.16
69624;BME280;56843;52.020;5.670;2022-11-20T04:09:55;101051.25;;;-7.98;87.09
69624;BME280;56843;52.020;5.670;2022-11-20T04:11:28;101054.84;;;-7.99;87.00
69624;BME280;56843;52.020;5.670;2022-11-20T04:12:59;101047.25;;;-8.01;86.69
69624;BME280;56843;52.020;5.670;2022-11-20T04:14:29;101058.81;;;-8.03;86.86
69624;BME280;56843;52.020;5.670;2022-11-20T04:16:00;101065.97;;;-8.05;87.09
69624;BME280;56843;52.020;5.670;2022-11-20T04:17:30;101062.78;;;-8.07;86.90
69624;BME280;56843;52.020;5.670;2022-11-20T04:19:03;101062.19;;;-8.09;87.08
69624;BME280;56843;52.020;5.670;2022-11-20T04:20:35;101058.00;;;-8.10;86.91
69624;BME280;56843;52.020;5.670;2022-11-20T04:22:05;101058.19;;;-8.12;86.85
69624;BME280;56843;52.020;5.670;2022-11-20T04:23:36;101066.94;;;-8.13;86.90
69624;BME280;56843;52.020;5.670;2022-11-20T04:25:07;101058.78;;;-8.16;86.92
69624;BME280;56843;52.020;5.670;2022-11-20T04:26:38;101059.16;;;-8.19;87.08
69624;BME280;56843;52.020;5.670;2022-11-20T04:28:09;101050.78;;;-8.21;86.78
69624;BME280;56843;52.020;5.670;2022-11-20T04:29:39;101057.13;;;-8.24;87.03
69624;BME280;56843;52.020;5.670;2022-11-20T04:31:13;101057.53;;;-8.27;87.05
69624;BME280;56843;52.020;5.670;2022-11-20T04:32:43;101062.09;;;-8.29;87.16
69624;BME280;56843;52.020;5.670;2022-11-20T04:34:14;101061.47;;;-8.31;86.83
69624;BME280;56843;52.020;5.670;2022-11-20T04:35:46;101048.72;;;-8.33;86.93
69624;BME280;56843;52.020;5.670;2022-11-20T04:37:17;101050.50;;;-8.33;87.24
69624;BME280;56843;52.020;5.670;2022-11-20T04:38:52;101056.50;;;-8.33;87.31
69624;BME280;56843;52.020;5.670;2022-11-20T04:40:23;101061.47;;;-8.31;87.29
69624;BME280;56843;52.020;5.670;2022-11-20T04:41:54;101047.56;;;-8.30;87.19
69624;BME280;56843;52.020;5.670;2022-11-20T04:43:53;101045.16;;;-8.32;86.94
69624;BME280;56843;52.020;5.670;2022-11-20T04:45:28;101052.94;;;-8.32;87.19
69624;BME280;56843;52.020;5.670;2022-11-20T04:46:59;101049.34;;;-8.31;87.19
69624;BME280;56843;52.020;5.670;2022-11-20T04:48:29;101044.16;;;-8.31;86.86
69624;BME280;56843;52.020;5.670;2022-11-20T04:50:00;101043.19;;;-8.30;86.92
69624;BME280;56843;52.020;5.670;2022-11-20T04:51:31;101043.34;;;-8.31;86.85
69624;BME280;56843;52.020;5.670;2022-11-20T04:53:01;101041.94;;;-8.34;86.88
69624;BME280;56843;52.020;5.670;2022-11-20T04:54:32;101043.75;;;-8.34;86.87
69624;BME280;56843;52.020;5.670;2022-11-20T04:56:05;101034.56;;;-8.37;87.04
69624;BME280;56843;52.020;5.670;2022-11-20T04:57:36;101027.00;;;-8.38;86.94
69624;BME280;56843;52.020;5.670;2022-11-20T04:59:06;101036.97;;;-8.35;87.07
69624;BME280;56843;52.020;5.670;2022-11-20T05:00:37;101024.00;;;-8.35;87.10
69624;BME280;56843;52.020;5.670;2022-11-20T05:02:07;101028.22;;;-8.34;87.19
69624;BME280;56843;52.020;5.670;2022-11-20T05:03:39;101018.63;;;-8.34;87.12
69624;BME280;56843;52.020;5.670;2022-11-20T05:05:09;101027.41;;;-8.35;86.97
69624;BME280;56843;52.020;5.670;2022-11-20T05:06:40;101018.84;;;-8.35;87.15
69624;BME280;56843;52.020;5.670;2022-11-20T05:08:11;101018.03;;;-8.36;86.89
69624;BME280;56843;52.020;5.670;2022-11-20T05:09:41;101011.47;;;-8.38;86.87
69624;BME280;56843;52.020;5.670;2022-11-20T05:11:14;101012.44;;;-8.39;86.94
69624;BME280;56843;52.020;5.670;2022-11-20T05:12:45;101012.25;;;-8.38;87.22
69624;BME280;56843;52.020;5.670;2022-11-20T05:14:16;101013.84;;;-8.37;87.23
69624;BME280;56843;52.020;5.670;2022-11-20T05:15:46;101009.88;;;-8.39;87.20
69624;BME280;56843;52.020;5.670;2022-11-20T05:17:19;101012.44;;;-8.39;87.11
69624;BME280;56843;52.020;5.670;2022-11-20T05:18:51;101016.81;;;-8.40;86.95
69624;BME280;56843;52.020;5.670;2022-11-20T05:20:22;101023.19;;;-8.42;86.82
69624;BME280;56843;52.020;5.670;2022-11-20T05:21:52;101020.78;;;-8.44;86.81
69624;BME280;56843;52.020;5.670;2022-11-20T05:23:23;101025.00;;;-8.43;87.06
69624;BME280;56843;52.020;5.670;2022-11-20T05:24:54;101019.81;;;-8.43;87.03
69624;BME280;56843;52.020;5.670;2022-11-20T05:26:25;101023.63;;;-8.39;87.20
69624;BME280;56843;52.020;5.670;2022-11-20T05:27:55;101006.09;;;-8.37;87.50
69624;BME280;56843;52.020;5.670;2022-11-20T05:29:26;101008.91;;;-8.32;87.74
69624;BME280;56843;52.020;5.670;2022-11-20T05:31:04;101004.53;;;-8.25;88.40
69624;BME280;56843;52.020;5.670;2022-11-20T05:32:34;101015.31;;;-8.21;88.37
69624;BME280;56843;52.020;5.670;2022-11-20T05:34:05;101010.94;;;-8.20;88.42
69624;BME280;56843;52.020;5.670;2022-11-20T05:35:35;101014.72;;;-8.23;88.31
69624;BME280;56843;52.020;5.670;2022-11-20T05:37:06;101018.47;;;-8.26;88.19
69624;BME280;56843;52.020;5.670;2022-11-20T05:38:37;101011.09;;;-8.29;88.12
69624;BME280;56843;52.020;5.670;2022-11-20T05:40:08;101003.72;;;-8.32;88.41
69624;BME280;56843;52.020;5.670;2022-11-20T05:41:39;101005.69;;;-8.34;88.19
69624;BME280;56843;52.020;5.670;2022-11-20T05:43:10;100984.97;;;-8.34;88.13
69624;BME280;56843;52.020;5.670;2022-11-20T05:44:40;100988.34;;;-8.33;88.49
69624;BME280;56843;52.020;5.670;2022-11-20T05:46:13;100989.75;;;-8.31;88.12
69624;BME280;56843;52.020;5.670;2022-11-20T05:47:44;100990.19;;;-8.27;88.46
69624;BME280;56843;52.020;5.670;2022-11-20T05:49:14;100990.59;;;-8.23;88.53
69624;BME280;56843;52.020;5.670;2022-11-20T05:50:45;100990.22;;;-8.20;88.86
69624;BME280;56843;52.020;5.670;2022-11-20T05:52:15;100989.81;;;-8.17;89.01
69624;BME280;56843;52.020;5.670;2022-11-20T05:53:46;101000.16;;;-8.17;88.74
69624;BME280;56843;52.020;5.670;2022-11-20T05:55:17;100989.41;;;-8.21;88.96
69624;BME280;56843;52.020;5.670;2022-11-20T05:56:47;100985.41;;;-8.23;88.52
69624;BME280;56843;52.020;5.670;2022-11-20T05:58:18;100997.75;;;-8.26;88.52
69624;BME280;56843;52.020;5.670;2022-11-20T05:59:48;100994.75;;;-8.29;88.46
69624;BME280;56843;52.020;5.670;2022-11-20T06:01:24;101004.13;;;-8.28;88.71
69624;BME280;56843;52.020;5.670;2022-11-20T06:02:55;101012.69;;;-8.28;88.95
69624;BME280;56843;52.020;5.670;2022-11-20T06:04:25;101016.28;;;-8.29;88.72
69624;BME280;56843;52.020;5.670;2022-11-20T06:05:58;101031.22;;;-8.31;88.45
69624;BME280;56843;52.020;5.670;2022-11-20T06:07:29;101027.41;;;-8.35;88.37
69624;BME280;56843;52.020;5.670;2022-11-20T06:09:00;101018.22;;;-8.37;88.60
69624;BME280;56843;52.020;5.670;2022-11-20T06:10:30;101023.03;;;-8.34;88.74
69624;BME280;56843;52.020;5.670;2022-11-20T06:12:01;101011.28;;;-8.30;89.04
69624;BME280;56843;52.020;5.670;2022-11-20T06:13:31;101021.66;;;-8.30;88.81
69624;BME280;56843;52.020;5.670;2022-11-20T06:15:03;101028.81;;;-8.32;88.75
69624;BME280;56843;52.020;5.670;2022-11-20T06:16:34;101022.03;;;-8.33;88.75
69624;BME280;56843;52.020;5.670;2022-11-20T06:18:05;101014.84;;;-8.38;88.45
69624;BME280;56843;52.020;5.670;2022-11-20T06:19:36;101025.19;;;-8.38;88.74
69624;BME280;56843;52.020;5.670;2022-11-20T06:21:08;101022.00;;;-8.40;88.91
69624;BME280;56843;52.020;5.670;2022-11-20T06:22:39;101030.78;;;-8.41;88.63
69624;BME280;56843;52.020;5.670;2022-11-20T06:24:10;101027.38;;;-8.41;88.59
69624;BME280;56843;52.020;5.670;2022-11-20T06:25:42;101033.38;;;-8.41;88.63
69624;BME280;56843;52.020;5.670;2022-11-20T06:27:13;101029.97;;;-8.41;88.49
69624;BME280;56843;52.020;5.670;2022-11-20T06:28:44;101038.91;;;-8.44;88.63
69624;BME280;56843;52.020;5.670;2022-11-20T06:30:17;101037.50;;;-8.46;88.41
69624;BME280;56843;52.020;5.670;2022-11-20T06:31:48;101035.13;;;-8.48;88.30
69624;BME280;56843;52.020;5.670;2022-11-20T06:33:24;101038.91;;;-8.50;88.59
69624;BME280;56843;52.020;5.670;2022-11-20T06:34:55;101038.28;;;-8.52;88.41
69624;BME280;56843;52.020;5.670;2022-11-20T06:36:26;101036.50;;;-8.52;88.51
69624;BME280;56843;52.020;5.670;2022-11-20T06:37:59;101038.50;;;-8.54;88.20
69624;BME280;56843;52.020;5.670;2022-11-20T06:39:30;101040.66;;;-8.57;88.35
69624;BME280;56843;52.020;5.670;2022-11-20T06:41:00;101044.03;;;-8.57;88.44
69624;BME280;56843;52.020;5.670;2022-11-20T06:42:32;101044.03;;;-8.57;88.47
69624;BME280;56843;52.020;5.670;2022-11-20T06:44:04;101044.03;;;-8.57;88.40
69624;BME280;56843;52.020;5.670;2022-11-20T06:45:36;101036.69;;;-8.53;88.48
69624;BME280;56843;52.020;5.670;2022-11-20T06:47:07;101034.09;;;-8.53;88.63
69624;BME280;56843;52.020;5.670;2022-11-20T06:48:37;101042.47;;;-8.51;88.62
69624;BME280;56843;52.020;5.670;2022-11-20T06:50:08;101038.69;;;-8.49;88.27
69624;BME280;56843;52.020;5.670;2022-11-20T06:51:39;101041.72;;;-8.45;88.48
69624;BME280;56843;52.020;5.670;2022-11-20T06:53:09;101039.53;;;-8.42;88.38
69624;BME280;56843;52.020;5.670;2022-11-20T06:54:40;101039.16;;;-8.39;88.22
69624;BME280;56843;52.020;5.670;2022-11-20T06:56:10;101042.16;;;-8.35;87.99
69624;BME280;56843;52.020;5.670;2022-11-20T06:57:41;101034.00;;;-8.32;88.30
69624;BME280;56843;52.020;5.670;2022-11-20T06:59:14;101035.22;;;-8.28;88.19
69624;BME280;56843;52.020;5.670;2022-11-20T07:00:45;101029.66;;;-8.25;88.13
69624;BME280;56843;52.020;5.670;2022-11-20T07:02:15;101031.22;;;-8.24;87.97
69624;BME280;56843;52.020;5.670;2022-11-20T07:03:48;101033.25;;;-8.19;88.06
69624;BME280;56843;52.020;5.670;2022-11-20T07:05:19;101034.44;;;-8.15;88.06
69624;BME280;56843;52.020;5.670;2022-11-20T07:06:49;101036.66;;;-8.12;87.67
69624;BME280;56843;52.020;5.670;2022-11-20T07:08:20;101029.09;;;-8.07;87.63
69624;BME280;56843;52.020;5.670;2022-11-20T07:09:50;101025.72;;;-8.01;87.54
69624;BME280;56843;52.020;5.670;2022-11-20T07:11:21;101031.13;;;-7.96;87.37
69624;BME280;56843;52.020;5.670;2022-11-20T07:12:52;101033.13;;;-7.92;87.55
69624;BME280;56843;52.020;5.670;2022-11-20T07:14:23;101025.75;;;-7.88;87.09
69624;BME280;56843;52.020;5.670;2022-11-20T07:15:54;101026.34;;;-7.86;87.06
69624;BME280;56843;52.020;5.670;2022-11-20T07:17:25;101023.56;;;-7.85;87.15
69624;BME280;56843;52.020;5.670;2022-11-20T07:18:56;101015.59;;;-7.83;87.09
69624;BME280;56843;52.020;5.670;2022-11-20T07:20:32;101012.59;;;-7.80;87.09
69624;BME280;56843;52.020;5.670;2022-11-20T07:22:02;101019.19;;;-7.78;87.38
69624;BME280;56843;52.020;5.670;2022-11-20T07:23:33;101007.44;;;-7.74;87.27
69624;BME280;56843;52.020;5.670;2022-11-20T07:25:07;101008.06;;;-7.72;86.94
69624;BME280;56843;52.020;5.670;2022-11-20T07:26:38;101016.22;;;-7.68;86.95
69624;BME280;56843;52.020;5.670;2022-11-20T07:28:08;101011.44;;;-7.65;86.67
69624;BME280;56843;52.020;5.670;2022-11-20T07:29:40;101010.25;;;-7.62;87.09
69624;BME280;56843;52.020;5.670;2022-11-20T07:31:11;101011.63;;;-7.60;86.78
69624;BME280;56843;52.020;5.670;2022-11-20T07:32:46;101006.84;;;-7.56;86.74
69624;BME280;56843;52.020;5.670;2022-11-20T07:34:17;101001.47;;;-7.55;86.99
69624;BME280;56843;52.020;5.670;2022-11-20T07:35:48;100997.69;;;-7.52;86.84
69624;BME280;56843;52.020;5.670;2022-11-20T07:37:18;101004.66;;;-7.46;86.95
69624;BME280;56843;52.020;5.670;2022-11-20T07:38:49;100988.31;;;-7.40;87.21
69624;BME280;56843;52.020;5.670;2022-11-20T07:40:20;100997.09;;;-7.34;87.05
69624;BME280;56843;52.020;5.670;2022-11-20T07:41:50;101000.84;;;-7.30;86.90
69624;BME280;56843;52.020;5.670;2022-11-20T07:43:21;101004.84;;;-7.28;86.80
69624;BME280;56843;52.020;5.670;2022-11-20T07:44:52;100996.63;;;-7.25;86.72
69624;BME280;56843;52.020;5.670;2022-11-20T07:46:22;100991.88;;;-7.21;86.77
69624;BME280;56843;52.020;5.670;2022-11-20T07:47:53;100994.03;;;-7.18;86.73
69624;BME280;56843;52.020;5.670;2022-11-20T07:49:23;100997.03;;;-7.15;86.54
69624;BME280;56843;52.020;5.670;2022-11-20T07:50:57;100993.03;;;-7.11;86.52
69624;BME280;56843;52.020;5.670;2022-11-20T07:52:29;101002.00;;;-7.07;86.81
69624;BME280;56843;52.020;5.670;2022-11-20T07:53:59;100988.63;;;-7.04;86.62
69624;BME280;56843;52.020;5.670;2022-11-20T07:55:30;100992.03;;;-6.97;86.49
69624;BME280;56843;52.020;5.670;2022-11-20T07:57:01;100986.59;;;-6.89;86.31
69624;BME280;56843;52.020;5.670;2022-11-20T07:58:32;100999.19;;;-6.79;86.42
69624;BME280;56843;52.020;5.670;2022-11-20T08:00:06;100994.34;;;-6.69;85.99
69624;BME280;56843;52.020;5.670;2022-11-20T08:01:45;100993.69;;;-6.58;86.08
69624;BME280;56843;52.020;5.670;2022-11-20T08:03:15;100999.47;;;-6.49;85.63
69624;BME280;56843;52.020;5.670;2022-11-20T08:04:46;101001.41;;;-6.38;85.29